sensor_id;sensor_type;location;lat;lon;timestamp;temperature;humidity
23540;DHT22;11947;50.810;4.394;2023-03-11T00:00:31;1.60;99.90
23540;DHT22;11947;50.810;4.394;2023-03-11T00:02:59;1.60;99.90
23540;DHT22;11947;50.810;4.394;2023-03-11T00:05:27;1.50;99.90
23540;DHT22;11947;50.810;4.394;2023-03-11T00:07:53;1.60;99.90
23540;DHT22;11947;50.810;4.394;2023-03-11T00:10:30;1.50;99.90
23540;DHT22;11947;50.810;4.394;2023-03-11T00:12:57;1.50;99.90
23540;DHT22;11947;50.810;4.394;2023-03-11T00:15:23;1.50;99.90
23540;DHT22;11947;50.810;4.394;2023-03-11T00:17:49;1.50;99.90
23540;DHT22;11947;50.810;4.394;2023-03-11T00:20:24;1.50;99.90
23540;DHT22;11947;50.810;4.394;2023-03-11T00:22:50;1.60;99.90
23540;DHT22;11947;50.810;4.394;2023-03-11T00:25:16;1.50;99.90
23540;DHT22;11947;50.810;4.394;2023-03-11T00:27:42;1.50;99.90
23540;DHT22;11947;50.810;4.394;2023-03-11T00:30:09;1.50;99.90
23540;DHT22;11947;50.810;4.394;2023-03-11T00:32:35;1.40;99.90
23540;DHT22;11947;50.810;4.394;2023-03-11T00:35:02;1.50;99.90
23540;DHT22;11947;50.810;4.394;2023-03-11T00:37:27;1.50;99.90
23540;DHT22;11947;50.810;4.394;2023-03-11T00:39:53;1.50;99.90
23540;DHT22;11947;50.810;4.394;2023-03-11T00:42:18;1.50;99.90
23540;DHT22;11947;50.810;4.394;2023-03-11T00:44:44;1.50;99.90
23540;DHT22;11947;50.810;4.394;2023-03-11T00:47:10;1.50;99.90
23540;DHT22;11947;50.810;4.394;2023-03-11T00:49:36;1.50;99.90
23540;DHT22;11947;50.810;4.394;2023-03-11T00:52:02;1.60;99.90
23540;DHT22;11947;50.810;4.394;2023-03-11T00:54:28;1.60;99.90
23540;DHT22;11947;50.810;4.394;2023-03-11T00:56:53;1.50;99.90
23540;DHT22;11947;50.810;4.394;2023-03-11T00:59:19;1.60;99.90
23540;DHT22;11947;50.810;4.394;2023-03-11T01:01:45;1.30;99.90
23540;DHT22;11947;50.810;4.394;2023-03-11T01:04:10;1.40;99.90
23540;DHT22;11947;50.810;4.394;2023-03-11T01:06:36;1.40;99.90
23540;DHT22;11947;50.810;4.394;2023-03-11T01:09:01;1.40;99.90
23540;DHT22;11947;50.810;4.394;2023-03-11T01:11:29;1.30;99.90
23540;DHT22;11947;50.810;4.394;2023-03-11T01:13:54;1.20;99.90
23540;DHT22;11947;50.810;4.394;2023-03-11T01:16:20;1.30;99.90
23540;DHT22;11947;50.810;4.394;2023-03-11T01:18:46;1.40;99.90
23540;DHT22;11947;50.810;4.394;2023-03-11T01:21:11;1.30;99.90
23540;DHT22;11947;50.810;4.394;2023-03-11T01:23:39;1.30;99.90
23540;DHT22;11947;50.810;4.394;2023-03-11T01:26:04;1.40;99.90
23540;DHT22;11947;50.810;4.394;2023-03-11T01:28:30;1.40;99.90
23540;DHT22;11947;50.810;4.394;2023-03-11T01:30:55;1.40;99.90
23540;DHT22;11947;50.810;4.394;2023-03-11T01:33:21;1.20;99.90
23540;DHT22;11947;50.810;4.394;2023-03-11T01:35:47;1.30;99.90
23540;DHT22;11947;50.810;4.394;2023-03-11T01:38:14;1.30;99.90
23540;DHT22;11947;50.810;4.394;2023-03-11T01:40:45;1.30;99.90
23540;DHT22;11947;50.810;4.394;2023-03-11T01:43:45;1.30;99.90
23540;DHT22;11947;50.810;4.394;2023-03-11T01:48:55;1.20;99.90
23540;DHT22;11947;50.810;4.394;2023-03-11T01:51:35;1.20;99.90
23540;DHT22;11947;50.810;4.394;2023-03-11T01:54:07;1.30;99.90
23540;DHT22;11947;50.810;4.394;2023-03-11T01:56:35;1.30;99.90
23540;DHT22;11947;50.810;4.394;2023-03-11T01:59:01;1.30;99.90
23540;DHT22;11947;50.810;4.394;2023-03-11T02:01:27;1.30;99.90
23540;DHT22;11947;50.810;4.394;2023-03-11T02:03:53;1.30;99.90
23540;DHT22;11947;50.810;4.394;2023-03-11T02:06:21;1.30;99.90
23540;DHT22;11947;50.810;4.394;2023-03-11T02:08:48;1.30;99.90
23540;DHT22;11947;50.810;4.394;2023-03-11T02:11:17;1.40;99.90
23540;DHT22;11947;50.810;4.394;2023-03-11T02:13:44;1.50;99.90
23540;DHT22;11947;50.810;4.394;2023-03-11T02:16:10;1.50;99.90
23540;DHT22;11947;50.810;4.394;2023-03-11T02:18:37;1.50;99.90
23540;DHT22;11947;50.810;4.394;2023-03-11T02:27:00;1.50;99.90
23540;DHT22;11947;50.810;4.394;2023-03-11T02:29:27;1.60;99.90
23540;DHT22;11947;50.810;4.394;2023-03-11T02:31:55;1.60;99.90
23540;DHT22;11947;50.810;4.394;2023-03-11T02:34:27;1.60;99.90
23540;DHT22;11947;50.810;4.394;2023-03-11T02:36:53;1.50;99.90
23540;DHT22;11947;50.810;4.394;2023-03-11T02:39:33;1.60;99.90
23540;DHT22;11947;50.810;4.394;2023-03-11T02:42:04;1.50;99.90
23540;DHT22;11947;50.810;4.394;2023-03-11T02:44:31;1.50;99.90
23540;DHT22;11947;50.810;4.394;2023-03-11T02:46:58;1.50;99.90
23540;DHT22;11947;50.810;4.394;2023-03-11T02:49:23;1.60;99.90
23540;DHT22;11947;50.810;4.394;2023-03-11T02:51:49;1.50;99.90
23540;DHT22;11947;50.810;4.394;2023-03-11T02:54:16;1.60;99.90
23540;DHT22;11947;50.810;4.394;2023-03-11T02:56:42;1.70;99.90
23540;DHT22;11947;50.810;4.394;2023-03-11T02:59:08;1.60;99.90
23540;DHT22;11947;50.810;4.394;2023-03-11T03:01:33;1.60;99.90
23540;DHT22;11947;50.810;4.394;2023-03-11T03:03:59;1.40;99.90
23540;DHT22;11947;50.810;4.394;2023-03-11T03:06:25;1.50;99.90
23540;DHT22;11947;50.810;4.394;2023-03-11T03:08:53;1.60;99.90
23540;DHT22;11947;50.810;4.394;2023-03-11T03:11:18;1.50;99.90
23540;DHT22;11947;50.810;4.394;2023-03-11T03:13:44;1.50;99.90
23540;DHT22;11947;50.810;4.394;2023-03-11T03:16:10;1.50;99.90
23540;DHT22;11947;50.810;4.394;2023-03-11T03:18:36;1.50;99.90
23540;DHT22;11947;50.810;4.394;2023-03-11T03:21:01;1.60;99.90
23540;DHT22;11947;50.810;4.394;2023-03-11T03:23:27;1.60;99.90
23540;DHT22;11947;50.810;4.394;2023-03-11T03:25:52;1.60;99.90
23540;DHT22;11947;50.810;4.394;2023-03-11T03:28:18;1.60;99.90
23540;DHT22;11947;50.810;4.394;2023-03-11T03:30:44;1.70;99.90
23540;DHT22;11947;50.810;4.394;2023-03-11T03:33:10;1.80;99.90
23540;DHT22;11947;50.810;4.394;2023-03-11T03:35:40;1.90;99.90
23540;DHT22;11947;50.810;4.394;2023-03-11T03:38:06;1.90;99.90
23540;DHT22;11947;50.810;4.394;2023-03-11T03:40:32;2.00;99.90
23540;DHT22;11947;50.810;4.394;2023-03-11T03:42:58;2.10;99.90
23540;DHT22;11947;50.810;4.394;2023-03-11T03:45:23;2.10;99.90
23540;DHT22;11947;50.810;4.394;2023-03-11T03:47:49;2.00;99.90
23540;DHT22;11947;50.810;4.394;2023-03-11T03:50:14;2.10;99.90
23540;DHT22;11947;50.810;4.394;2023-03-11T03:52:40;2.10;99.90
23540;DHT22;11947;50.810;4.394;2023-03-11T03:55:06;2.10;99.90
23540;DHT22;11947;50.810;4.394;2023-03-11T03:57:31;2.20;99.90
23540;DHT22;11947;50.810;4.394;2023-03-11T03:59:57;2.10;99.90
23540;DHT22;11947;50.810;4.394;2023-03-11T04:02:23;2.10;99.90
23540;DHT22;11947;50.810;4.394;2023-03-11T04:04:49;2.20;99.90
23540;DHT22;11947;50.810;4.394;2023-03-11T04:07:14;2.00;99.90
23540;DHT22;11947;50.810;4.394;2023-03-11T04:09:41;2.10;99.90
23540;DHT22;11947;50.810;4.394;2023-03-11T04:12:12;2.10;99.90
23540;DHT22;11947;50.810;4.394;2023-03-11T04:14:39;2.10;99.90
23540;DHT22;11947;50.810;4.394;2023-03-11T04:17:04;2.20;99.90
23540;DHT22;11947;50.810;4.394;2023-03-11T04:19:31;2.00;99.90
23540;DHT22;11947;50.810;4.394;2023-03-11T04:21:57;1.90;99.90
23540;DHT22;11947;50.810;4.394;2023-03-11T04:24:22;1.80;99.90
23540;DHT22;11947;50.810;4.394;2023-03-11T04:26:48;1.80;99.90
23540;DHT22;11947;50.810;4.394;2023-03-11T04:29:14;1.80;99.90
23540;DHT22;11947;50.810;4.394;2023-03-11T04:31:40;1.70;99.90
23540;DHT22;11947;50.810;4.394;2023-03-11T04:34:06;1.70;99.90
23540;DHT22;11947;50.810;4.394;2023-03-11T04:36:32;1.60;99.90
23540;DHT22;11947;50.810;4.394;2023-03-11T04:38:57;1.50;99.90
23540;DHT22;11947;50.810;4.394;2023-03-11T04:41:23;1.50;99.90
23540;DHT22;11947;50.810;4.394;2023-03-11T04:43:49;1.60;99.90
23540;DHT22;11947;50.810;4.394;2023-03-11T04:46:14;1.40;99.90
23540;DHT22;11947;50.810;4.394;2023-03-11T04:48:40;1.40;99.90
23540;DHT22;11947;50.810;4.394;2023-03-11T04:51:07;1.50;99.90
23540;DHT22;11947;50.810;4.394;2023-03-11T04:53:33;1.40;99.90
23540;DHT22;11947;50.810;4.394;2023-03-11T04:55:59;1.30;99.90
23540;DHT22;11947;50.810;4.394;2023-03-11T04:58:24;1.20;99.90
23540;DHT22;11947;50.810;4.394;2023-03-11T05:00:51;1.20;99.90
23540;DHT22;11947;50.810;4.394;2023-03-11T05:03:17;1.10;99.90
23540;DHT22;11947;50.810;4.394;2023-03-11T05:05:43;1.10;99.90
23540;DHT22;11947;50.810;4.394;2023-03-11T05:08:09;1.10;99.90
23540;DHT22;11947;50.810;4.394;2023-03-11T05:10:35;1.10;99.90
23540;DHT22;11947;50.810;4.394;2023-03-11T05:13:01;1.10;99.90
23540;DHT22;11947;50.810;4.394;2023-03-11T05:15:26;1.10;99.90
23540;DHT22;11947;50.810;4.394;2023-03-11T05:17:53;1.10;99.90
23540;DHT22;11947;50.810;4.394;2023-03-11T05:20:18;1.00;99.90
23540;DHT22;11947;50.810;4.394;2023-03-11T05:22:44;1.00;99.90
23540;DHT22;11947;50.810;4.394;2023-03-11T05:25:11;1.00;99.90
23540;DHT22;11947;50.810;4.394;2023-03-11T05:27:37;1.10;99.90
23540;DHT22;11947;50.810;4.394;2023-03-11T05:30:03;0.90;99.90
23540;DHT22;11947;50.810;4.394;2023-03-11T05:32:28;0.90;99.90
23540;DHT22;11947;50.810;4.394;2023-03-11T05:34:54;0.90;99.90
23540;DHT22;11947;50.810;4.394;2023-03-11T05:37:19;1.00;99.90
23540;DHT22;11947;50.810;4.394;2023-03-11T05:39:45;1.10;99.90
23540;DHT22;11947;50.810;4.394;2023-03-11T05:42:11;1.10;99.90
23540;DHT22;11947;50.810;4.394;2023-03-11T05:44:36;1.00;99.90
23540;DHT22;11947;50.810;4.394;2023-03-11T05:47:02;1.20;99.90
23540;DHT22;11947;50.810;4.394;2023-03-11T05:49:28;1.00;99.90
23540;DHT22;11947;50.810;4.394;2023-03-11T05:51:53;0.90;99.90
23540;DHT22;11947;50.810;4.394;2023-03-11T05:54:19;0.90;99.90
23540;DHT22;11947;50.810;4.394;2023-03-11T05:56:46;1.10;99.90
23540;DHT22;11947;50.810;4.394;2023-03-11T05:59:12;0.90;99.90
23540;DHT22;11947;50.810;4.394;2023-03-11T06:01:38;0.90;99.90
23540;DHT22;11947;50.810;4.394;2023-03-11T06:04:04;0.80;99.90
23540;DHT22;11947;50.810;4.394;2023-03-11T06:06:30;0.90;99.90
23540;DHT22;11947;50.810;4.394;2023-03-11T06:08:56;1.00;99.90
23540;DHT22;11947;50.810;4.394;2023-03-11T06:11:22;1.10;99.90
23540;DHT22;11947;50.810;4.394;2023-03-11T06:13:55;1.10;99.90
23540;DHT22;11947;50.810;4.394;2023-03-11T06:16:22;1.20;99.90
23540;DHT22;11947;50.810;4.394;2023-03-11T06:18:48;1.00;99.90
23540;DHT22;11947;50.810;4.394;2023-03-11T06:21:21;1.00;99.90
23540;DHT22;11947;50.810;4.394;2023-03-11T06:23:48;0.90;99.90
23540;DHT22;11947;50.810;4.394;2023-03-11T06:26:16;0.90;99.90
23540;DHT22;11947;50.810;4.394;2023-03-11T06:28:43;0.80;99.90
23540;DHT22;11947;50.810;4.394;2023-03-11T06:33:42;0.80;99.90
23540;DHT22;11947;50.810;4.394;2023-03-11T06:36:09;0.80;99.90
23540;DHT22;11947;50.810;4.394;2023-03-11T06:38:36;0.90;99.90
23540;DHT22;11947;50.810;4.394;2023-03-11T06:41:03;1.00;99.90
23540;DHT22;11947;50.810;4.394;2023-03-11T06:43:29;1.20;99.90
23540;DHT22;11947;50.810;4.394;2023-03-11T06:45:58;1.30;99.90
23540;DHT22;11947;50.810;4.394;2023-03-11T06:48:24;1.30;99.90
23540;DHT22;11947;50.810;4.394;2023-03-11T06:50:57;1.40;99.90
23540;DHT22;11947;50.810;4.394;2023-03-11T06:53:24;1.50;99.90
23540;DHT22;11947;50.810;4.394;2023-03-11T06:56:03;1.40;99.90
23540;DHT22;11947;50.810;4.394;2023-03-11T06:58:30;1.40;99.90
23540;DHT22;11947;50.810;4.394;2023-03-11T07:01:00;1.50;99.90
23540;DHT22;11947;50.810;4.394;2023-03-11T07:03:26;1.40;99.90
23540;DHT22;11947;50.810;4.394;2023-03-11T07:05:52;1.50;99.90
23540;DHT22;11947;50.810;4.394;2023-03-11T07:08:17;1.60;99.90
23540;DHT22;11947;50.810;4.394;2023-03-11T07:10:43;1.70;99.90
23540;DHT22;11947;50.810;4.394;2023-03-11T07:13:09;1.80;99.90
23540;DHT22;11947;50.810;4.394;2023-03-11T07:15:34;1.90;99.90
23540;DHT22;11947;50.810;4.394;2023-03-11T07:18:00;2.00;99.90
23540;DHT22;11947;50.810;4.394;2023-03-11T07:20:26;2.10;99.90
23540;DHT22;11947;50.810;4.394;2023-03-11T07:22:52;2.20;99.90
23540;DHT22;11947;50.810;4.394;2023-03-11T07:25:17;2.20;99.90
23540;DHT22;11947;50.810;4.394;2023-03-11T07:27:43;2.40;99.90
23540;DHT22;11947;50.810;4.394;2023-03-11T07:30:09;2.40;99.90
23540;DHT22;11947;50.810;4.394;2023-03-11T07:32:35;2.60;99.90
23540;DHT22;11947;50.810;4.394;2023-03-11T07:35:00;2.60;99.90
23540;DHT22;11947;50.810;4.394;2023-03-11T07:37:26;2.80;99.90
23540;DHT22;11947;50.810;4.394;2023-03-11T07:39:51;2.80;99.90
23540;DHT22;11947;50.810;4.394;2023-03-11T07:42:17;2.90;99.90
23540;DHT22;11947;50.810;4.394;2023-03-11T07:44:43;3.00;99.90
23540;DHT22;11947;50.810;4.394;2023-03-11T07:47:08;3.10;99.90
23540;DHT22;11947;50.810;4.394;2023-03-11T07:49:34;3.30;99.90
23540;DHT22;11947;50.810;4.394;2023-03-11T07:52:00;3.40;99.90
23540;DHT22;11947;50.810;4.394;2023-03-11T07:54:26;3.40;99.90
23540;DHT22;11947;50.810;4.394;2023-03-11T07:57:03;3.40;99.90
23540;DHT22;11947;50.810;4.394;2023-03-11T07:59:38;3.70;99.90
23540;DHT22;11947;50.810;4.394;2023-03-11T08:02:03;3.70;99.90
23540;DHT22;11947;50.810;4.394;2023-03-11T08:04:29;3.80;99.90
23540;DHT22;11947;50.810;4.394;2023-03-11T08:06:55;3.90;99.90
23540;DHT22;11947;50.810;4.394;2023-03-11T08:09:20;4.00;99.90
23540;DHT22;11947;50.810;4.394;2023-03-11T08:11:46;4.40;99.90
23540;DHT22;11947;50.810;4.394;2023-03-11T08:14:11;4.40;99.90
23540;DHT22;11947;50.810;4.394;2023-03-11T08:16:39;4.60;99.90
23540;DHT22;11947;50.810;4.394;2023-03-11T08:19:04;4.60;99.90
23540;DHT22;11947;50.810;4.394;2023-03-11T08:21:30;4.70;99.90
23540;DHT22;11947;50.810;4.394;2023-03-11T08:23:57;4.80;99.90
23540;DHT22;11947;50.810;4.394;2023-03-11T08:26:24;4.90;99.90
23540;DHT22;11947;50.810;4.394;2023-03-11T08:28:49;5.00;99.90
23540;DHT22;11947;50.810;4.394;2023-03-11T08:31:20;5.20;99.90
23540;DHT22;11947;50.810;4.394;2023-03-11T08:33:47;5.30;99.90
23540;DHT22;11947;50.810;4.394;2023-03-11T08:36:16;5.40;99.90
23540;DHT22;11947;50.810;4.394;2023-03-11T08:38:42;5.60;99.90
23540;DHT22;11947;50.810;4.394;2023-03-11T08:41:08;5.70;99.90
23540;DHT22;11947;50.810;4.394;2023-03-11T08:43:33;5.80;99.90
23540;DHT22;11947;50.810;4.394;2023-03-11T08:46:01;6.10;99.90
23540;DHT22;11947;50.810;4.394;2023-03-11T08:48:27;6.10;99.90
23540;DHT22;11947;50.810;4.394;2023-03-11T08:50:52;6.10;99.90
23540;DHT22;11947;50.810;4.394;2023-03-11T08:53:18;6.30;99.90
23540;DHT22;11947;50.810;4.394;2023-03-11T08:55:44;6.20;99.90
23540;DHT22;11947;50.810;4.394;2023-03-11T08:58:09;6.20;99.90
23540;DHT22;11947;50.810;4.394;2023-03-11T09:00:35;6.40;99.90
23540;DHT22;11947;50.810;4.394;2023-03-11T09:03:01;6.40;99.90
23540;DHT22;11947;50.810;4.394;2023-03-11T09:05:26;6.60;99.90
23540;DHT22;11947;50.810;4.394;2023-03-11T09:07:52;6.80;99.90
23540;DHT22;11947;50.810;4.394;2023-03-11T09:10:17;7.20;99.90
23540;DHT22;11947;50.810;4.394;2023-03-11T09:12:43;7.20;99.90
23540;DHT22;11947;50.810;4.394;2023-03-11T09:15:09;7.40;99.90
23540;DHT22;11947;50.810;4.394;2023-03-11T09:17:36;7.30;99.90
23540;DHT22;11947;50.810;4.394;2023-03-11T09:20:02;7.30;99.90
23540;DHT22;11947;50.810;4.394;2023-03-11T09:22:28;7.40;99.90
23540;DHT22;11947;50.810;4.394;2023-03-11T09:24:54;7.50;99.90
23540;DHT22;11947;50.810;4.394;2023-03-11T09:27:20;7.70;99.90
23540;DHT22;11947;50.810;4.394;2023-03-11T09:29:46;7.90;99.90
23540;DHT22;11947;50.810;4.394;2023-03-11T09:32:12;8.30;99.90
23540;DHT22;11947;50.810;4.394;2023-03-11T09:34:38;8.50;99.90
23540;DHT22;11947;50.810;4.394;2023-03-11T09:37:03;8.80;99.90
23540;DHT22;11947;50.810;4.394;2023-03-11T09:39:29;9.10;99.90
23540;DHT22;11947;50.810;4.394;2023-03-11T09:42:02;9.20;99.90
23540;DHT22;11947;50.810;4.394;2023-03-11T09:44:40;9.10;99.90
23540;DHT22;11947;50.810;4.394;2023-03-11T09:50:14;9.80;99.90
23540;DHT22;11947;50.810;4.394;2023-03-11T09:58:07;10.40;99.90
23540;DHT22;11947;50.810;4.394;2023-03-11T10:00:34;10.70;99.90
23540;DHT22;11947;50.810;4.394;2023-03-11T10:03:01;10.90;99.90
23540;DHT22;11947;50.810;4.394;2023-03-11T10:05:28;10.80;99.90
23540;DHT22;11947;50.810;4.394;2023-03-11T10:08:02;11.10;99.90
23540;DHT22;11947;50.810;4.394;2023-03-11T10:10:32;11.10;99.90
23540;DHT22;11947;50.810;4.394;2023-03-11T10:13:37;11.30;99.90
23540;DHT22;11947;50.810;4.394;2023-03-11T10:16:23;12.00;99.90
23540;DHT22;11947;50.810;4.394;2023-03-11T10:24:27;12.50;99.90
23540;DHT22;11947;50.810;4.394;2023-03-11T10:27:02;12.60;99.90
23540;DHT22;11947;50.810;4.394;2023-03-11T10:35:45;14.60;99.90
23540;DHT22;11947;50.810;4.394;2023-03-11T10:38:16;15.10;99.90
23540;DHT22;11947;50.810;4.394;2023-03-11T10:40:44;15.20;99.90
23540;DHT22;11947;50.810;4.394;2023-03-11T10:43:16;14.90;99.90
23540;DHT22;11947;50.810;4.394;2023-03-11T10:45:44;14.00;99.90
23540;DHT22;11947;50.810;4.394;2023-03-11T10:48:14;13.70;99.90
23540;DHT22;11947;50.810;4.394;2023-03-11T10:50:48;13.30;99.90
23540;DHT22;11947;50.810;4.394;2023-03-11T10:53:16;13.50;99.90
23540;DHT22;11947;50.810;4.394;2023-03-11T10:55:54;13.20;99.90
23540;DHT22;11947;50.810;4.394;2023-03-11T10:58:26;13.70;99.90
23540;DHT22;11947;50.810;4.394;2023-03-11T11:01:05;13.30;99.90
23540;DHT22;11947;50.810;4.394;2023-03-11T11:03:33;13.40;99.90
23540;DHT22;11947;50.810;4.394;2023-03-11T11:06:04;13.40;99.90
23540;DHT22;11947;50.810;4.394;2023-03-11T11:08:30;13.50;99.90
23540;DHT22;11947;50.810;4.394;2023-03-11T11:10:58;14.30;99.90
23540;DHT22;11947;50.810;4.394;2023-03-11T11:13:29;14.80;99.90
23540;DHT22;11947;50.810;4.394;2023-03-11T11:15:56;15.10;99.90
23540;DHT22;11947;50.810;4.394;2023-03-11T11:18:44;15.00;99.90
23540;DHT22;11947;50.810;4.394;2023-03-11T11:21:46;14.80;99.90
23540;DHT22;11947;50.810;4.394;2023-03-11T11:24:27;15.00;99.90
23540;DHT22;11947;50.810;4.394;2023-03-11T11:27:27;15.10;99.90
23540;DHT22;11947;50.810;4.394;2023-03-11T11:32:35;15.70;99.90
23540;DHT22;11947;50.810;4.394;2023-03-11T11:35:01;16.00;99.90
23540;DHT22;11947;50.810;4.394;2023-03-11T11:37:29;15.90;99.90
23540;DHT22;11947;50.810;4.394;2023-03-11T11:40:16;15.40;99.90
23540;DHT22;11947;50.810;4.394;2023-03-11T11:42:56;14.90;99.90
23540;DHT22;11947;50.810;4.394;2023-03-11T11:45:48;14.40;99.90
23540;DHT22;11947;50.810;4.394;2023-03-11T11:48:24;13.90;99.90
23540;DHT22;11947;50.810;4.394;2023-03-11T11:50:53;13.70;99.90
23540;DHT22;11947;50.810;4.394;2023-03-11T11:55:54;13.40;99.90
23540;DHT22;11947;50.810;4.394;2023-03-11T11:58:20;13.70;99.90
23540;DHT22;11947;50.810;4.394;2023-03-11T12:03:49;14.70;99.90
23540;DHT22;11947;50.810;4.394;2023-03-11T12:09:11;15.30;99.50
23540;DHT22;11947;50.810;4.394;2023-03-11T12:14:44;15.80;99.90
23540;DHT22;11947;50.810;4.394;2023-03-11T12:17:14;16.40;99.90
23540;DHT22;11947;50.810;4.394;2023-03-11T12:19:49;17.40;99.00
23540;DHT22;11947;50.810;4.394;2023-03-11T12:25:18;20.60;97.00
23540;DHT22;11947;50.810;4.394;2023-03-11T12:30:38;22.60;90.70
23540;DHT22;11947;50.810;4.394;2023-03-11T12:35:37;24.50;78.70
23540;DHT22;11947;50.810;4.394;2023-03-11T12:40:49;24.10;73.50
23540;DHT22;11947;50.810;4.394;2023-03-11T12:46:01;21.40;76.00
23540;DHT22;11947;50.810;4.394;2023-03-11T12:50:59;18.90;82.50
23540;DHT22;11947;50.810;4.394;2023-03-11T12:53:41;18.00;82.10
23540;DHT22;11947;50.810;4.394;2023-03-11T12:56:39;17.30;84.40
23540;DHT22;11947;50.810;4.394;2023-03-11T13:10:12;14.90;91.50
23540;DHT22;11947;50.810;4.394;2023-03-11T13:12:57;14.80;92.20
23540;DHT22;11947;50.810;4.394;2023-03-11T13:15:27;14.60;91.50
23540;DHT22;11947;50.810;4.394;2023-03-11T13:18:00;15.20;92.50
23540;DHT22;11947;50.810;4.394;2023-03-11T13:31:09;28.70;65.40
23540;DHT22;11947;50.810;4.394;2023-03-11T13:33:54;30.10;60.40
23540;DHT22;11947;50.810;4.394;2023-03-11T13:41:52;32.80;49.80
23540;DHT22;11947;50.810;4.394;2023-03-11T13:46:48;33.10;46.20
23540;DHT22;11947;50.810;4.394;2023-03-11T13:50:00;33.10;45.80
23540;DHT22;11947;50.810;4.394;2023-03-11T13:52:35;33.00;45.80
23540;DHT22;11947;50.810;4.394;2023-03-11T13:55:14;31.70;47.50
23540;DHT22;11947;50.810;4.394;2023-03-11T13:57:53;31.40;46.20
23540;DHT22;11947;50.810;4.394;2023-03-11T14:00:21;30.40;45.70
23540;DHT22;11947;50.810;4.394;2023-03-11T14:02:55;29.50;47.40
23540;DHT22;11947;50.810;4.394;2023-03-11T14:05:30;28.90;48.50
23540;DHT22;11947;50.810;4.394;2023-03-11T14:13:28;26.90;47.90
23540;DHT22;11947;50.810;4.394;2023-03-11T14:16:09;24.60;51.30
23540;DHT22;11947;50.810;4.394;2023-03-11T14:18:43;22.50;51.50
23540;DHT22;11947;50.810;4.394;2023-03-11T14:23:47;22.50;55.50
23540;DHT22;11947;50.810;4.394;2023-03-11T14:26:19;23.00;54.60
23540;DHT22;11947;50.810;4.394;2023-03-11T14:28:50;22.20;53.20
23540;DHT22;11947;50.810;4.394;2023-03-11T14:34:03;20.80;56.20
23540;DHT22;11947;50.810;4.394;2023-03-11T14:36:31;20.80;55.30
23540;DHT22;11947;50.810;4.394;2023-03-11T14:39:03;20.50;57.80
23540;DHT22;11947;50.810;4.394;2023-03-11T14:41:29;19.30;57.00
23540;DHT22;11947;50.810;4.394;2023-03-11T14:43:55;18.10;59.40
23540;DHT22;11947;50.810;4.394;2023-03-11T14:46:26;16.80;64.50
23540;DHT22;11947;50.810;4.394;2023-03-11T14:48:53;15.80;67.00
23540;DHT22;11947;50.810;4.394;2023-03-11T14:51:24;15.00;67.70
23540;DHT22;11947;50.810;4.394;2023-03-11T14:54:07;14.80;73.30
23540;DHT22;11947;50.810;4.394;2023-03-11T14:56:41;14.90;71.90
23540;DHT22;11947;50.810;4.394;2023-03-11T14:59:22;15.50;68.60
23540;DHT22;11947;50.810;4.394;2023-03-11T15:01:52;17.20;66.00
23540;DHT22;11947;50.810;4.394;2023-03-11T15:04:29;19.40;61.80
23540;DHT22;11947;50.810;4.394;2023-03-11T15:06:57;21.40;57.10
23540;DHT22;11947;50.810;4.394;2023-03-11T15:09:23;22.80;57.10
23540;DHT22;11947;50.810;4.394;2023-03-11T15:11:55;23.80;53.70
23540;DHT22;11947;50.810;4.394;2023-03-11T15:14:27;24.60;54.10
23540;DHT22;11947;50.810;4.394;2023-03-11T15:16:54;25.20;52.60
23540;DHT22;11947;50.810;4.394;2023-03-11T15:21:54;25.40;49.80
23540;DHT22;11947;50.810;4.394;2023-03-11T15:24:25;25.50;52.30
23540;DHT22;11947;50.810;4.394;2023-03-11T15:26:59;25.60;52.20
23540;DHT22;11947;50.810;4.394;2023-03-11T15:29:26;25.60;52.10
23540;DHT22;11947;50.810;4.394;2023-03-11T15:31:52;25.70;53.10
23540;DHT22;11947;50.810;4.394;2023-03-11T15:34:28;24.80;51.00
23540;DHT22;11947;50.810;4.394;2023-03-11T15:42:39;18.80;59.20
23540;DHT22;11947;50.810;4.394;2023-03-11T15:45:16;17.00;63.80
23540;DHT22;11947;50.810;4.394;2023-03-11T15:47:44;15.20;68.50
23540;DHT22;11947;50.810;4.394;2023-03-11T15:50:24;14.20;73.10
23540;DHT22;11947;50.810;4.394;2023-03-11T15:52:53;13.40;74.50
23540;DHT22;11947;50.810;4.394;2023-03-11T15:55:19;12.60;79.10
23540;DHT22;11947;50.810;4.394;2023-03-11T15:57:46;12.20;75.30
23540;DHT22;11947;50.810;4.394;2023-03-11T16:00:20;11.60;79.00
23540;DHT22;11947;50.810;4.394;2023-03-11T16:02:47;11.00;84.60
23540;DHT22;11947;50.810;4.394;2023-03-11T16:05:16;10.30;80.80
23540;DHT22;11947;50.810;4.394;2023-03-11T16:07:42;9.50;80.80
23540;DHT22;11947;50.810;4.394;2023-03-11T16:10:09;9.30;86.60
23540;DHT22;11947;50.810;4.394;2023-03-11T16:12:35;9.40;89.20
23540;DHT22;11947;50.810;4.394;2023-03-11T16:15:01;9.20;91.70
23540;DHT22;11947;50.810;4.394;2023-03-11T16:17:26;9.20;90.20
23540;DHT22;11947;50.810;4.394;2023-03-11T16:19:52;9.00;88.70
23540;DHT22;11947;50.810;4.394;2023-03-11T16:22:20;9.10;88.30
23540;DHT22;11947;50.810;4.394;2023-03-11T16:24:48;9.20;86.60
23540;DHT22;11947;50.810;4.394;2023-03-11T16:27:16;9.20;91.10
23540;DHT22;11947;50.810;4.394;2023-03-11T16:29:45;9.40;91.50
23540;DHT22;11947;50.810;4.394;2023-03-11T16:32:11;9.30;90.70
23540;DHT22;11947;50.810;4.394;2023-03-11T16:34:38;9.20;88.10
23540;DHT22;11947;50.810;4.394;2023-03-11T16:37:07;9.00;91.00
23540;DHT22;11947;50.810;4.394;2023-03-11T16:39:34;8.80;92.70
23540;DHT22;11947;50.810;4.394;2023-03-11T16:42:00;8.40;91.40
23540;DHT22;11947;50.810;4.394;2023-03-11T16:44:26;8.50;93.70
23540;DHT22;11947;50.810;4.394;2023-03-11T16:46:51;8.20;95.70
23540;DHT22;11947;50.810;4.394;2023-03-11T16:49:17;8.20;96.40
23540;DHT22;11947;50.810;4.394;2023-03-11T16:51:42;8.10;95.00
23540;DHT22;11947;50.810;4.394;2023-03-11T16:54:08;8.10;94.00
23540;DHT22;11947;50.810;4.394;2023-03-11T16:56:34;7.90;96.10
23540;DHT22;11947;50.810;4.394;2023-03-11T16:59:00;7.70;95.70
23540;DHT22;11947;50.810;4.394;2023-03-11T17:01:26;7.60;96.90
23540;DHT22;11947;50.810;4.394;2023-03-11T17:03:52;7.70;96.10
23540;DHT22;11947;50.810;4.394;2023-03-11T17:06:19;7.90;95.10
23540;DHT22;11947;50.810;4.394;2023-03-11T17:08:45;7.90;94.80
23540;DHT22;11947;50.810;4.394;2023-03-11T17:11:21;7.90;95.70
23540;DHT22;11947;50.810;4.394;2023-03-11T17:13:48;7.90;97.70
23540;DHT22;11947;50.810;4.394;2023-03-11T17:16:14;7.90;98.70
23540;DHT22;11947;50.810;4.394;2023-03-11T17:18:40;7.90;97.40
23540;DHT22;11947;50.810;4.394;2023-03-11T17:21:12;7.90;98.20
23540;DHT22;11947;50.810;4.394;2023-03-11T17:23:38;7.80;95.60
23540;DHT22;11947;50.810;4.394;2023-03-11T17:26:07;7.50;99.40
23540;DHT22;11947;50.810;4.394;2023-03-11T17:28:34;7.80;96.80
23540;DHT22;11947;50.810;4.394;2023-03-11T17:31:00;7.60;95.60
23540;DHT22;11947;50.810;4.394;2023-03-11T17:33:26;7.80;95.00
23540;DHT22;11947;50.810;4.394;2023-03-11T17:36:05;7.70;94.60
23540;DHT22;11947;50.810;4.394;2023-03-11T17:38:31;7.50;95.40
23540;DHT22;11947;50.810;4.394;2023-03-11T17:40:57;7.50;98.30